Nearby METAR Reports


Data Updates Approximately Every Four Hours

METAR is the international standard code format for hourly surface weather observations which is analogous to the SA coding currently used in the US. The acronym roughly translates from French as Aviation Routine Weather Report. SPECI is merely the code name given to METAR formatted products which are issued on a special non-routine basis as dictated by changing meteorological conditions. The SPECI acronym roughly translates as Aviation Selected Special Weather Report.

KSLH - Cheboygan, Michigan, USA
Distance from station: W 9mi, 14km
Updated: 10/19/2018 2:15pm
Overcast
Overcast
 Wind from SSW
Wind: SSW 17 mph , 28 km/h, Gust: 30 mph , 48 km/h
Temperature: 55°F , 13°C
Dew Point: 45°F , 7°C
Humidity: 67%
Barometer: 29.66 inHg , 1004.4 hPa
Clouds: Overcast
Visibility: 10 miles , 16 km
Cloud details: Partly cloudy 4100 ft
Mostly cloudy 7000 ft
Overcast 9000 ft
2018/10/19 18:15 KSLH 191815Z AUTO 21015G26KT 10SM SCT041 BKN070 OVC090 13/07 A2966 RMK AO2 T01300070
KMCD - Mackinac Island, Michigan, USA
Distance from station: NW 19mi, 31km
Updated: 10/19/2018 2:15pm
Light rain, Overcast
Light rain, Overcast
 Wind from SW
Wind: SW 26 mph , 43 km/h, Gust: 40 mph , 65 km/h
Temperature: 52°F , 11°C
Dew Point: 39°F , 4°C
Humidity: 62%
Barometer: 29.66 inHg , 1004.4 hPa
Summary: Light rain
Clouds: Overcast
Visibility: 10 miles , 16 km
Cloud details: Partly cloudy 2900 ft
Overcast 6000 ft
2018/10/19 18:15 KMCD 191815Z AUTO 22023G35KT 190V260 10SM -RA SCT029 OVC060 11/04 A2966 RMK AO2 T01140043
 
KPLN - Pellston, Michigan, USA
Distance from station: WSW 24mi, 38km
Updated: 10/19/2018 1:54pm
Light rain, Mostly cloudy
Light rain, Mostly cloudy
 Wind from SW
Wind: SW 20 mph , 31 km/h, Gust: 28 mph , 44 km/h
Temperature: 57°F , 14°C
Dew Point: 45°F , 7°C
Humidity: 63%
Barometer: 29.71 inHg , 1006.1 hPa
Summary: Light rain
Clouds: Mostly cloudy
Visibility: 10 miles , 16 km
Cloud details: Partly cloudy 4300 ft
Mostly cloudy 8000 ft
2018/10/19 17:54 KPLN 191754Z AUTO 22017G24KT 10SM -RA SCT043 BKN080 14/07 A2971 RMK AO2 PK WND 24031/1739 RAB50 SLP063 P0000 60000 T01390067 10139 20106 58033
KPZQ - Rogers City, Michigan, USA
Distance from station: SE 31mi, 50km
Updated: 10/19/2018 2:15pm
Overcast
Overcast
 Wind from SW
Wind: SW 14 mph , 22 km/h, Gust: 21 mph , 33 km/h
Temperature: 57°F , 14°C
Dew Point: 43°F , 6°C
Humidity: 59%
Barometer: 29.73 inHg , 1006.8 hPa
Clouds: Overcast
Visibility: 10 miles , 16 km
Cloud details: Mostly cloudy 8000 ft
Overcast 9000 ft
2018/10/19 18:15 KPZQ 191815Z AUTO 22012G18KT 10SM BKN080 OVC090 14/06 A2973 RMK AO2 T01360060
 
KMGN - Harbor Springs, Michigan, USA
Distance from station: WSW 32mi, 52km
Updated: 10/19/2018 2:15pm
Light drizzle, Overcast
Light drizzle, Overcast
 Wind from SW
Wind: SW 21 mph , 33 km/h, Gust: 31 mph , 50 km/h
Temperature: 52°F , 11°C
Dew Point: 45°F , 7°C
Humidity: 77%
Barometer: 29.71 inHg , 1006.1 hPa
Summary: Light Drizzle
Clouds: Overcast
Visibility: 10 miles , 16 km
Cloud details: Partly cloudy 3500 ft
Mostly cloudy 4100 ft
Overcast 4800 ft
2018/10/19 18:15 KMGN 191815Z AUTO 22018G27KT 10SM -DZ SCT035 BKN041 OVC048 11/07 A2971 RMK AO2 T01150080
KDRM - Drummond Is, Michigan, USA
Distance from station: NE 36mi, 59km
Updated: 10/19/2018 2:15pm
Overcast
Overcast
 Wind from SSW
Wind: SSW 10 mph , 17 km/h, Gust: 16 mph , 26 km/h
Temperature: 52°F , 11°C
Dew Point: 45°F , 7°C
Humidity: 77%
Barometer: 29.68 inHg , 1005.1 hPa
Clouds: Overcast
Visibility: 10 miles , 16 km
Cloud details: Partly cloudy 8000 ft
Overcast 10000 ft
2018/10/19 18:15 KDRM 191815Z AUTO 20009G14KT 10SM SCT080 OVC100 11/07 A2968 RMK AO2 T01110067
 
KCIU - Chippewa Intl, Michigan, USA
Distance from station: N 41mi, 66km
Updated: 10/19/2018 1:56pm
Light rain, Overcast
Light rain, Overcast
 Wind from SW
Wind: SW 14 mph , 22 km/h, Gust: 21 mph , 33 km/h
Temperature: 52°F , 11°C
Dew Point: 46°F , 8°C
Humidity: 82%
Barometer: 29.65 inHg , 1004.1 hPa
Summary: Light rain
Clouds: Overcast
Visibility: 10 miles , 16 km
Cloud details: Overcast 1800 ft
2018/10/19 17:56 KCIU 191756Z AUTO 23012G18KT 10SM -RA OVC018 11/08 A2965 RMK AO2 RAB02 SLP068 P0000 60000 T01110083 10133 20100 58032
KGLR - Gaylord, Michigan, USA
Distance from station: SSW 48mi, 77km
Updated: 10/19/2018 1:53pm
Light rain, Overcast
Light rain, Overcast
 Wind from SW
Wind: SW 20 mph , 31 km/h, Gust: 29 mph , 46 km/h
Temperature: 52°F , 11°C
Dew Point: 46°F , 8°C
Humidity: 82%
Barometer: 29.76 inHg , 1007.8 hPa
Summary: Light rain
Clouds: Overcast
Visibility: 8 miles , 13 km
Cloud details: Overcast 6000 ft
2018/10/19 17:53 KGLR 191753Z AUTO 23017G25KT 8SM -RA OVC060 11/08 A2976 RMK AO2 PK WND 23039/1726 RAB31 PRESFR SLP082 P0001 60001 T01060078 10122 20078 58036
 
KCVX - Charlevoix, Michigan, USA
Distance from station: WSW 52mi, 83km
Updated: 10/19/2018 2:15pm
Overcast
Overcast
 Wind from SSW
Wind: SSW 17 mph , 28 km/h, Gust: 33 mph , 54 km/h
Temperature: 54°F , 12°C
Dew Point: 46°F , 8°C
Humidity: 77%
Barometer: 29.74 inHg , 1007.1 hPa
Clouds: Overcast
Visibility: 10 miles , 16 km
Cloud details: Partly cloudy 3800 ft
Partly cloudy 5000 ft
Overcast 7000 ft
2018/10/19 18:15 KCVX 191815Z AUTO 21015G29KT 10SM SCT038 SCT050 OVC070 12/08 A2974 RMK AO2 T01150082
KANJ - Sault Ste Marie, Michigan, USA
Distance from station: N 56mi, 89km
Updated: 10/19/2018 1:55pm
Light rain, Overcast
Light rain, Overcast
 
Temperature: 54°F , 12°C
Dew Point: 46°F , 8°C
Humidity: 77%
Barometer: 29.64 inHg , 1003.7 hPa
Summary: Light rain
Clouds: Overcast
Visibility: 10 miles , 16 km
Cloud details: Overcast 2100 ft
2018/10/19 17:55 KANJ 191755Z AUTO 10SM -RA OVC021 12/08 A2964 RMK AO2 RAB06E34B53 SLP038 P0000 60000 T01220083 10144 20100 58029
 
KAPN - Alpena, Michigan, USA
Distance from station: SE 56mi, 89km
Updated: 10/19/2018 1:54pm
Light rain, Overcast
Light rain, Overcast
 Wind from SW
Wind: SW 13 mph , 20 km/h, Gust: 30 mph , 48 km/h
Temperature: 55°F , 13°C
Dew Point: 43°F , 6°C
Humidity: 63%
Barometer: 29.78 inHg , 1008.5 hPa
Summary: Light rain
Clouds: Overcast
Visibility: 10 miles , 16 km
Cloud details: Few Clouds 6000 ft
Mostly cloudy 7500 ft
Overcast 10000 ft
2018/10/19 17:54 KAPN 191754Z AUTO 22011G26KT 10SM -RA FEW060 BKN075 OVC100 13/06 A2978 RMK AO2 PK WND 22026/1751 RAB43 SLP086 P0000 60000 T01330056 10139 20094 58028
CYAM - Sault Ste Marie, Ontario, Canada
Distance from station: N 56mi, 90km
Updated: 10/19/2018 2:00pm

 
2018/10/19 18:00 CYAM 191800Z CCA 23009G16KT 8SM -SHRA SCT017 BKN022 OVC070 11/09 A2964 RMK CF3CU3ACC2 SLP042 DENSITY ALT 700FT
 
KSJX - Beaver Island, Michigan, USA
Distance from station: W 60mi, 96km
Updated: 10/19/2018 2:16pm
Light rain, Overcast
Light rain, Overcast
 Wind from SSW
Wind: SSW 18 mph , 30 km/h, Gust: 35 mph , 56 km/h
Temperature: 50°F , 10°C
Wind Chill: 44°F , 7°C
Dew Point: 46°F , 8°C
Humidity: 88%
Barometer: 29.66 inHg , 1004.4 hPa
Summary: Light rain
Clouds: Overcast
Visibility: 10 miles , 16 km
Cloud details: Overcast 6000 ft
2018/10/19 18:16 KSJX 191816Z AUTO 21016G30KT 10SM -RA OVC060 10/08 A2966 RMK AO2 T01010080
KACB - Bellaire, Michigan, USA
Distance from station: SW 63mi, 102km
Updated: 10/19/2018 2:15pm
Overcast
Overcast
 Wind from SSW
Wind: SSW 8 mph , 13 km/h, Gust: 24 mph , 39 km/h
Temperature: 54°F , 12°C
Dew Point: 45°F , 7°C
Humidity: 72%
Barometer: 29.76 inHg , 1007.8 hPa
Clouds: Overcast
Visibility: 10 miles , 16 km
Cloud details: Partly cloudy 2300 ft
Overcast 6000 ft
2018/10/19 18:15 KACB 191815Z AUTO 21007G21KT 10SM SCT023 OVC060 12/07 A2976 RMK AO2 T01180073
 
CWNL - Great Duck Island, Ontario, Canada
Distance from station: E 66mi, 106km
Updated: 10/19/2018 1:00pm
NOT Current

 Wind from SW
Wind: SW 9 mph , 15 km/h
Temperature: 48°F , 9°C
Wind Chill: 44°F , 7°C
Dew Point: 43°F , 6°C
Humidity: 82%
2018/10/19 17:00 CWNL 191700Z AUTO 23008KT 09/06 RMK AO1 PK WND 22019/1615 SLP084 T00900061 58021
KERY - Newberry, Michigan, USA
Distance from station: NW 69mi, 112km
Updated: 10/19/2018 2:15pm
Light rain, Overcast
Light rain, Overcast
 Wind from SSW
Wind: SSW 22 mph , 35 km/h, Gust: 30 mph , 48 km/h
Temperature: 48°F , 9°C
Wind Chill: 41°F , 5°C
Dew Point: 48°F , 9°C
Humidity: 100%
Barometer: 29.61 inHg , 1002.7 hPa
Summary: Light rain
Clouds: Overcast
Visibility: 4 miles , 6 km
Cloud details: Overcast 1400 ft
2018/10/19 18:15 KERY 191815Z AUTO 21019G26KT 4SM -RA OVC014 09/09 A2961 RMK AO2 P0002 T00900085
 
KGOV - Grayling Af, Michigan, USA
Distance from station: SSW 70mi, 113km
Updated: 10/19/2018 2:11pm
Mostly cloudy
Mostly cloudy
 Wind from SW
Wind: SW 10 mph , 17 km/h, Gust: 20 mph , 31 km/h
Temperature: 50°F , 10°C
Wind Chill: 46°F , 8°C
Dew Point: 48°F , 9°C
Humidity: 94%
Barometer: 29.78 inHg , 1008.5 hPa
Clouds: Mostly cloudy
Visibility: 10 miles , 16 km
Cloud details: Mostly cloudy 1900 ft
2018/10/19 18:11 KGOV 191811Z AUTO 23009G17KT 10SM BKN019 10/09 A2978 RMK AO2 RAE11 CIG 019V025 SLPNO